createdAt,value
2019-04-01T00:00:37.801Z,3.61
2019-04-01T00:03:07.206Z,3.59
2019-04-01T00:05:35.503Z,3.57
2019-04-01T00:08:03.860Z,3.52
2019-04-01T00:10:32.151Z,3.49
2019-04-01T00:13:00.427Z,3.52
2019-04-01T00:15:28.721Z,3.53
2019-04-01T00:17:57.064Z,3.53
2019-04-01T00:20:25.365Z,3.52
2019-04-01T00:22:53.777Z,3.43
2019-04-01T00:25:22.212Z,3.40
2019-04-01T00:27:50.494Z,3.38
2019-04-01T00:30:18.908Z,3.36
2019-04-01T00:32:47.241Z,3.37
2019-04-01T00:35:15.533Z,3.39
2019-04-01T00:37:43.934Z,3.40
2019-04-01T00:40:13.844Z,3.39
2019-04-01T00:42:44.039Z,3.39
2019-04-01T00:45:13.981Z,3.39
2019-04-01T00:47:42.377Z,3.38
2019-04-01T00:50:10.644Z,3.39
2019-04-01T00:52:39.138Z,3.38
2019-04-01T00:55:07.402Z,3.33
2019-04-01T00:57:35.679Z,3.32
2019-04-01T01:00:04.891Z,3.26
2019-04-01T01:02:33.331Z,3.19
2019-04-01T01:05:01.633Z,3.19
2019-04-01T01:07:29.904Z,3.18
2019-04-01T01:09:58.296Z,3.19
2019-04-01T01:12:26.689Z,3.15
2019-04-01T01:14:55.519Z,3.16
2019-04-01T01:17:25.151Z,3.07
2019-04-01T01:19:53.432Z,3.08
2019-04-01T01:22:22.206Z,3.06
2019-04-01T01:24:52.050Z,3.03
2019-04-01T01:27:20.328Z,3.02
2019-04-01T01:29:48.600Z,3.01
2019-04-01T01:32:16.905Z,3.00
2019-04-01T01:34:45.261Z,2.97
2019-04-01T01:37:13.532Z,2.95
2019-04-01T01:39:41.848Z,2.93
2019-04-01T01:42:10.132Z,2.93
2019-04-01T01:44:38.515Z,2.93
2019-04-01T01:47:07.062Z,2.90
2019-04-01T01:49:35.394Z,2.88
2019-04-01T01:52:03.780Z,2.87
2019-04-01T01:54:32.836Z,2.87
2019-04-01T01:57:01.146Z,2.88
2019-04-01T01:59:29.743Z,2.88
2019-04-01T02:01:58.045Z,2.88
2019-04-01T02:04:26.344Z,2.87
2019-04-01T02:06:54.677Z,2.85
2019-04-01T02:09:23.462Z,2.83
2019-04-01T02:11:51.906Z,2.81
2019-04-01T02:14:20.225Z,2.80
2019-04-01T02:16:48.638Z,2.78
2019-04-01T02:19:16.915Z,2.72
2019-04-01T02:21:45.281Z,2.72
2019-04-01T02:24:14.336Z,2.71
2019-04-01T02:26:42.615Z,2.71
2019-04-01T02:29:10.951Z,2.70
2019-04-01T02:31:39.794Z,2.69
2019-04-01T02:34:08.208Z,2.68
2019-04-01T02:36:37.071Z,2.67
2019-04-01T02:39:07.292Z,2.66
2019-04-01T02:41:35.710Z,2.66
2019-04-01T02:44:03.970Z,2.61
2019-04-01T02:46:32.332Z,2.65
2019-04-01T02:49:01.013Z,2.61
2019-04-01T02:51:29.494Z,2.59
2019-04-01T02:53:57.769Z,2.52
2019-04-01T02:56:26.535Z,2.50
2019-04-01T02:58:54.975Z,2.53
2019-04-01T03:01:23.249Z,2.51
2019-04-01T03:03:51.528Z,2.50
2019-04-01T03:06:19.834Z,2.48
2019-04-01T03:08:48.267Z,2.48
2019-04-01T03:11:16.568Z,2.49
2019-04-01T03:13:44.920Z,2.45
2019-04-01T03:16:13.425Z,2.41
2019-04-01T03:18:41.764Z,2.42
2019-04-01T03:21:10.042Z,2.38
2019-04-01T03:23:38.356Z,2.38
2019-04-01T03:26:06.633Z,2.34
2019-04-01T03:28:35.107Z,2.35
2019-04-01T03:31:03.461Z,2.29
2019-04-01T03:33:31.839Z,2.25
2019-04-01T03:36:00.132Z,2.23
2019-04-01T03:38:28.408Z,2.21
2019-04-01T03:40:56.729Z,2.23
2019-04-01T03:43:25.858Z,2.21
2019-04-01T03:45:54.136Z,2.22
2019-04-01T03:48:22.452Z,2.18
2019-04-01T03:50:50.745Z,2.15
2019-04-01T03:53:19.115Z,2.11
2019-04-01T03:55:47.452Z,2.11
2019-04-01T03:58:15.876Z,2.08
2019-04-01T04:00:44.318Z,2.04
2019-04-01T04:03:12.595Z,2.03
2019-04-01T04:05:40.897Z,2.05
2019-04-01T04:08:09.227Z,2.07
2019-04-01T04:10:37.561Z,2.05
2019-04-01T04:13:05.834Z,1.99
2019-04-01T04:15:34.692Z,1.99
2019-04-01T04:18:02.972Z,1.98
2019-04-01T04:20:31.354Z,1.95
2019-04-01T04:22:59.658Z,1.96
2019-04-01T04:25:28.215Z,1.95
2019-04-01T04:27:56.535Z,1.90
2019-04-01T04:30:24.813Z,1.89
2019-04-01T04:32:53.140Z,1.89
2019-04-01T04:35:21.459Z,1.85
2019-04-01T04:37:49.754Z,1.79
2019-04-01T04:40:18.043Z,1.79
2019-04-01T04:42:46.663Z,1.74
2019-04-01T04:45:14.957Z,1.73
2019-04-01T04:47:43.256Z,1.73
2019-04-01T04:50:11.608Z,1.73
2019-04-01T04:52:40.013Z,1.75
2019-04-01T04:55:08.298Z,1.76
2019-04-01T04:57:37.350Z,1.75
2019-04-01T05:00:06.896Z,1.74
2019-04-01T05:02:35.647Z,1.73
2019-04-01T05:05:05.679Z,1.78
2019-04-01T05:07:33.940Z,1.75
2019-04-01T05:10:02.260Z,1.76
2019-04-01T05:12:30.590Z,1.69
2019-04-01T05:14:58.938Z,1.69
2019-04-01T05:17:27.282Z,1.69
2019-04-01T05:19:55.638Z,1.67
2019-04-01T05:22:23.935Z,1.66
2019-04-01T05:24:52.242Z,1.64
2019-04-01T05:27:20.907Z,1.65
2019-04-01T05:29:49.357Z,1.68
2019-04-01T05:32:18.451Z,1.64
2019-04-01T05:34:46.750Z,1.63
2019-04-01T05:37:16.233Z,1.61
2019-04-01T05:39:44.925Z,1.61
2019-04-01T05:42:13.711Z,1.63
2019-04-01T05:44:42.902Z,1.61
2019-04-01T05:47:11.494Z,1.63
2019-04-01T05:49:39.793Z,1.64
2019-04-01T05:52:08.166Z,1.64
2019-04-01T05:54:37.243Z,1.62
2019-04-01T05:57:05.620Z,1.62
2019-04-01T05:59:34.038Z,1.65
2019-04-01T06:02:02.425Z,1.67
2019-04-01T06:04:30.660Z,1.68
2019-04-01T06:06:58.979Z,1.74
2019-04-01T06:09:27.256Z,1.79
2019-04-01T06:11:55.677Z,1.81
2019-04-01T06:14:23.969Z,1.87
2019-04-01T06:16:52.341Z,1.88
2019-04-01T06:19:20.650Z,1.95
2019-04-01T06:21:49.118Z,2.03
2019-04-01T06:24:17.442Z,2.12
2019-04-01T06:26:45.719Z,2.21
2019-04-01T06:29:13.994Z,2.27
2019-04-01T06:31:42.317Z,2.35
2019-04-01T06:34:10.649Z,2.38
2019-04-01T06:36:39.699Z,2.44
2019-04-01T06:39:07.979Z,2.53
2019-04-01T06:41:37.101Z,2.60
2019-04-01T06:44:05.396Z,2.66
2019-04-01T06:46:33.715Z,2.74
2019-04-01T06:49:02.034Z,2.83
2019-04-01T06:51:30.308Z,2.96
2019-04-01T06:53:58.605Z,3.02
2019-04-01T06:56:26.910Z,3.09
2019-04-01T06:58:55.472Z,3.19
2019-04-01T07:01:23.928Z,3.34
2019-04-01T07:03:52.232Z,3.40
2019-04-01T07:06:20.551Z,3.52
2019-04-01T07:08:48.867Z,3.65
2019-04-01T07:11:17.348Z,3.78
2019-04-01T07:13:45.650Z,3.90
2019-04-01T07:16:15.833Z,4.04
2019-04-01T07:18:44.099Z,4.19
2019-04-01T07:21:12.453Z,4.32
2019-04-01T07:23:40.729Z,4.46
2019-04-01T07:26:09.028Z,4.56
2019-04-01T07:28:37.300Z,4.67
2019-04-01T07:31:05.704Z,4.80
2019-04-01T07:33:34.052Z,4.89
2019-04-01T07:36:02.418Z,5.01
2019-04-01T07:38:31.446Z,5.14
2019-04-01T07:40:59.922Z,5.27
2019-04-01T07:43:29.115Z,5.39
2019-04-01T07:45:59.999Z,5.50
2019-04-01T07:48:27.647Z,5.63
2019-04-01T07:50:56.683Z,5.76
2019-04-01T07:53:24.965Z,5.95
2019-04-01T07:55:53.413Z,6.09
2019-04-01T07:58:21.697Z,6.23
2019-04-01T08:00:49.967Z,6.37
2019-04-01T08:03:19.054Z,6.48
2019-04-01T08:05:47.388Z,6.63
2019-04-01T08:08:15.766Z,6.93
2019-04-01T08:10:44.559Z,6.93
2019-04-01T08:13:12.850Z,7.08
2019-04-01T08:15:41.104Z,7.39
2019-04-01T08:18:09.408Z,7.39
2019-04-01T08:20:37.713Z,7.50
2019-04-01T08:23:06.055Z,7.59
2019-04-01T08:25:34.317Z,7.79
2019-04-01T08:28:02.589Z,7.93
2019-04-01T08:30:31.013Z,8.12
2019-04-01T08:32:59.293Z,8.24
2019-04-01T08:35:27.566Z,8.26
2019-04-01T08:37:55.943Z,8.34
2019-04-01T08:40:24.214Z,8.53
2019-04-01T08:42:52.592Z,8.65
2019-04-01T08:45:20.953Z,8.79
2019-04-01T08:47:49.250Z,8.88
2019-04-01T08:50:17.530Z,8.99
2019-04-01T08:52:45.925Z,9.12
2019-04-01T08:55:14.259Z,9.21
2019-04-01T08:57:42.628Z,9.35
2019-04-01T09:00:11.096Z,9.42
2019-04-01T09:02:39.599Z,9.53
2019-04-01T09:05:07.976Z,9.62
2019-04-01T09:07:37.213Z,9.63
2019-04-01T09:10:06.341Z,9.77
2019-04-01T09:12:34.758Z,9.91
2019-04-01T09:15:03.584Z,10.11
2019-04-01T09:17:31.919Z,10.23
2019-04-01T09:20:00.450Z,10.39
2019-04-01T09:22:28.991Z,10.56
2019-04-01T09:24:57.409Z,10.63
2019-04-01T09:27:25.687Z,10.67
2019-04-01T09:29:54.033Z,10.77
2019-04-01T09:32:22.407Z,10.95
2019-04-01T09:34:50.688Z,11.16
2019-04-01T09:37:18.995Z,11.30
2019-04-01T09:39:47.298Z,11.29
2019-04-01T09:42:15.596Z,11.33
2019-04-01T09:44:43.887Z,11.36
2019-04-01T09:47:12.313Z,11.47
2019-04-01T09:49:40.585Z,11.59
2019-04-01T09:52:09.439Z,11.58
2019-04-01T09:54:37.764Z,11.68
2019-04-01T09:57:17.268Z,11.80
2019-04-01T09:59:36.063Z,11.89
2019-04-01T10:02:04.492Z,12.02
2019-04-01T10:04:32.985Z,12.01
2019-04-01T10:07:01.256Z,12.11
2019-04-01T10:09:29.564Z,12.10
2019-04-01T10:11:57.876Z,12.22
2019-04-01T10:14:26.302Z,12.40
2019-04-01T10:16:55.350Z,12.57
2019-04-01T10:19:23.715Z,12.70
2019-04-01T10:21:52.276Z,12.86
2019-04-01T10:24:20.556Z,12.96
2019-04-01T10:26:48.901Z,13.01
2019-04-01T10:29:17.282Z,13.08
2019-04-01T10:31:45.608Z,13.19
2019-04-01T10:34:14.532Z,13.39
2019-04-01T10:36:42.873Z,13.44
2019-04-01T10:39:11.344Z,13.57
2019-04-01T10:41:39.696Z,13.61
2019-04-01T10:44:07.969Z,13.68
2019-04-01T10:46:36.446Z,13.79
2019-04-01T10:49:04.833Z,13.81
2019-04-01T10:51:33.121Z,13.99
2019-04-01T10:54:01.616Z,14.17
2019-04-01T10:56:29.861Z,14.35
2019-04-01T10:58:58.723Z,14.51
2019-04-01T11:01:27.118Z,14.68
2019-04-01T11:03:55.838Z,14.64
2019-04-01T11:06:24.215Z,14.84
2019-04-01T11:08:52.786Z,15.07
2019-04-01T11:11:21.160Z,15.31
2019-04-01T11:13:51.710Z,15.42
2019-04-01T11:16:19.463Z,15.39
2019-04-01T11:18:47.790Z,15.32
2019-04-01T11:21:16.095Z,15.52
2019-04-01T11:23:44.381Z,15.74
2019-04-01T11:26:12.679Z,15.90
2019-04-01T11:28:41.040Z,15.77
2019-04-01T11:31:09.757Z,15.38
2019-04-01T11:33:38.024Z,15.44
2019-04-01T11:36:06.326Z,15.62
2019-04-01T11:38:34.742Z,15.86
2019-04-01T11:41:03.019Z,16.21
2019-04-01T11:43:35.268Z,16.38
2019-04-01T11:46:01.825Z,16.45
2019-04-01T11:48:30.992Z,16.56
2019-04-01T11:50:59.339Z,16.64
2019-04-01T11:53:27.735Z,16.75
2019-04-01T11:55:56.090Z,16.80
2019-04-01T11:58:24.396Z,16.86
2019-04-01T12:00:52.676Z,16.92
2019-04-01T12:03:21.104Z,16.98
2019-04-01T12:05:49.395Z,17.21
2019-04-01T12:08:17.820Z,17.43
2019-04-01T12:10:46.115Z,17.39
2019-04-01T12:13:14.740Z,17.36
2019-04-01T12:15:43.970Z,17.43
2019-04-01T12:18:12.251Z,17.42
2019-04-01T12:20:40.577Z,17.04
2019-04-01T12:23:08.871Z,17.25
2019-04-01T12:25:38.457Z,16.80
2019-04-01T12:28:08.215Z,17.07
2019-04-01T12:30:36.496Z,17.26
2019-04-01T12:33:04.914Z,17.54
2019-04-01T12:35:33.194Z,17.66
2019-04-01T12:38:01.476Z,17.72
2019-04-01T12:40:29.973Z,17.62
2019-04-01T12:42:58.350Z,17.14
2019-04-01T12:45:26.739Z,17.28
2019-04-01T12:47:55.070Z,16.63
2019-04-01T12:50:23.362Z,16.71
2019-04-01T12:52:51.675Z,17.12
2019-04-01T12:55:20.052Z,17.49
2019-04-01T12:57:48.799Z,17.70
2019-04-01T13:00:19.361Z,17.92
2019-04-01T13:02:47.642Z,17.96
2019-04-01T13:05:16.791Z,17.89
2019-04-01T13:07:45.985Z,18.02
2019-04-01T13:10:14.294Z,18.03
2019-04-01T13:12:43.199Z,18.04
2019-04-01T13:15:12.745Z,18.07
2019-04-01T13:17:41.708Z,18.08
2019-04-01T13:20:10.018Z,18.30
2019-04-01T13:22:38.430Z,18.37
2019-04-01T13:25:06.709Z,18.46
2019-04-01T13:27:35.137Z,18.25
2019-04-01T13:30:04.506Z,18.49
2019-04-01T13:32:32.789Z,18.26
2019-04-01T13:35:01.083Z,18.47
2019-04-01T13:37:29.385Z,18.51
2019-04-01T13:39:57.671Z,18.35
2019-04-01T13:42:26.841Z,18.11
2019-04-01T13:44:55.167Z,18.21
2019-04-01T13:47:23.494Z,18.53
2019-04-01T13:49:51.812Z,18.80
2019-04-01T13:52:20.183Z,18.79
2019-04-01T13:54:48.489Z,18.68
2019-04-01T13:57:17.937Z,18.74
2019-04-01T13:59:49.519Z,18.86
2019-04-01T14:02:16.390Z,18.64
2019-04-01T14:04:44.809Z,18.58
2019-04-01T14:07:13.093Z,18.58
2019-04-01T14:09:41.397Z,18.67
2019-04-01T14:12:09.748Z,18.91
2019-04-01T14:14:38.160Z,18.99
2019-04-01T14:17:06.441Z,19.00
2019-04-01T14:19:34.726Z,19.07
2019-04-01T14:22:03.038Z,19.00
2019-04-01T14:24:31.317Z,18.38
2019-04-01T14:26:59.616Z,18.14
2019-04-01T14:29:27.893Z,18.19
2019-04-01T14:31:56.335Z,18.35
2019-04-01T14:34:24.621Z,18.38
2019-04-01T14:36:52.919Z,18.47
2019-04-01T14:39:21.231Z,18.51
2019-04-01T14:41:49.585Z,18.56
2019-04-01T14:44:17.988Z,18.56
2019-04-01T14:46:46.266Z,18.55
2019-04-01T14:49:15.766Z,18.51
2019-04-01T14:51:44.161Z,18.53
2019-04-01T14:54:12.497Z,18.60
2019-04-01T14:56:40.806Z,18.58
2019-04-01T14:59:09.083Z,18.73
2019-04-01T15:01:37.392Z,18.82
2019-04-01T15:04:05.699Z,18.60
2019-04-01T15:06:34.102Z,18.40
2019-04-01T15:09:02.405Z,18.46
2019-04-01T15:11:30.742Z,18.30
2019-04-01T15:14:00.228Z,18.38
2019-04-01T15:16:29.757Z,18.29
2019-04-01T15:18:58.034Z,18.15
2019-04-01T15:21:26.334Z,18.28
2019-04-01T15:23:54.726Z,18.11
2019-04-01T15:26:23.074Z,18.13
2019-04-01T15:28:51.462Z,18.08
2019-04-01T15:31:19.845Z,17.83
2019-04-01T15:33:48.114Z,17.87
2019-04-01T15:36:17.124Z,17.89
2019-04-01T15:38:45.411Z,17.70
2019-04-01T15:41:13.812Z,17.56
2019-04-01T15:43:42.132Z,17.42
2019-04-01T15:46:10.410Z,17.36
2019-04-01T15:48:38.994Z,17.33
2019-04-01T15:51:07.913Z,17.44
2019-04-01T15:53:36.679Z,17.39
2019-04-01T15:56:05.631Z,17.20
2019-04-01T15:58:33.961Z,16.85
2019-04-01T16:01:02.245Z,16.69
2019-04-01T16:03:33.573Z,16.58
2019-04-01T16:06:03.038Z,16.54
2019-04-01T16:08:31.748Z,16.27
2019-04-01T16:11:00.558Z,16.17
2019-04-01T16:13:28.987Z,16.05
2019-04-01T16:15:57.273Z,15.92
2019-04-01T16:18:26.303Z,15.54
2019-04-01T16:20:55.271Z,15.39
2019-04-01T16:23:23.915Z,15.18
2019-04-01T16:25:52.261Z,15.08
2019-04-01T16:28:20.569Z,15.03
2019-04-01T16:30:48.905Z,14.70
2019-04-01T16:33:17.304Z,14.56
2019-04-01T16:35:46.088Z,14.57
2019-04-01T16:38:14.598Z,14.45
2019-04-01T16:40:42.885Z,14.43
2019-04-01T16:43:11.170Z,14.38
2019-04-01T16:45:39.504Z,14.31
2019-04-01T16:48:08.477Z,14.21
2019-04-01T16:50:37.813Z,14.21
2019-04-01T16:53:06.115Z,14.21
2019-04-01T16:55:36.073Z,14.12
2019-04-01T16:58:04.679Z,14.01
2019-04-01T17:00:32.972Z,14.01
2019-04-01T17:03:01.365Z,13.88
2019-04-01T17:05:34.092Z,13.77
2019-04-01T17:08:02.673Z,13.68
2019-04-01T17:10:30.974Z,13.54
2019-04-01T17:13:01.377Z,13.53
2019-04-01T17:15:29.494Z,13.48
2019-04-01T17:17:57.770Z,13.37
2019-04-01T17:20:26.125Z,13.30
2019-04-01T17:22:54.539Z,13.26
2019-04-01T17:25:22.880Z,13.20
2019-04-01T17:27:51.929Z,13.14
2019-04-01T17:30:20.300Z,13.05
2019-04-01T17:32:48.781Z,12.99
2019-04-01T17:35:17.062Z,12.93
2019-04-01T17:37:45.369Z,12.88
2019-04-01T17:40:16.884Z,12.81
2019-04-01T17:42:43.915Z,12.66
2019-04-01T17:45:24.667Z,12.54
2019-04-01T17:47:53.763Z,12.52
2019-04-01T17:50:22.043Z,12.47
2019-04-01T17:52:50.346Z,12.43
2019-04-01T17:55:18.619Z,12.30
2019-04-01T17:57:47.013Z,12.28
2019-04-01T18:00:17.597Z,12.22
2019-04-01T18:02:45.902Z,12.18
2019-04-01T18:05:15.960Z,12.09
2019-04-01T18:07:45.202Z,12.06
2019-04-01T18:10:13.480Z,12.01
2019-04-01T18:12:41.817Z,11.99
2019-04-01T18:15:10.135Z,11.87
2019-04-01T18:17:39.211Z,11.74
2019-04-01T18:20:07.964Z,11.68
2019-04-01T18:22:36.293Z,11.63
2019-04-01T18:25:05.698Z,11.55
2019-04-01T18:27:34.798Z,11.49
2019-04-01T18:30:03.680Z,11.43
2019-04-01T18:32:32.071Z,11.36
2019-04-01T18:35:04.012Z,11.33
2019-04-01T18:37:31.312Z,11.31
2019-04-01T18:39:59.720Z,11.25
2019-04-01T18:42:28.021Z,11.20
2019-04-01T18:44:56.323Z,11.13
2019-04-01T18:47:24.701Z,11.08
2019-04-01T18:49:52.989Z,11.00
2019-04-01T18:52:21.431Z,10.88
2019-04-01T18:54:49.739Z,10.86
2019-04-01T18:57:18.069Z,10.83
2019-04-01T18:59:46.394Z,10.79
2019-04-01T19:02:14.688Z,10.70
2019-04-01T19:04:43.093Z,10.64
2019-04-01T19:07:11.450Z,10.60
2019-04-01T19:09:39.727Z,10.57
2019-04-01T19:12:08.110Z,10.47
2019-04-01T19:14:36.439Z,10.43
2019-04-01T19:17:04.728Z,10.39
2019-04-01T19:19:32.999Z,10.34
2019-04-01T19:22:01.541Z,10.32
2019-04-01T19:24:29.873Z,10.27
2019-04-01T19:26:58.260Z,10.21
2019-04-01T19:29:27.429Z,10.12
2019-04-01T19:31:55.711Z,10.07
2019-04-01T19:34:23.997Z,10.05
2019-04-01T19:36:52.436Z,10.04
2019-04-01T19:39:20.766Z,10.00
2019-04-01T19:41:49.412Z,9.96
2019-04-01T19:44:17.762Z,9.92
2019-04-01T19:46:46.035Z,9.84
2019-04-01T19:49:14.310Z,9.79
2019-04-01T19:51:42.970Z,9.70
2019-04-01T19:54:11.280Z,9.63
2019-04-01T19:56:39.553Z,9.56
2019-04-01T19:59:08.834Z,9.48
2019-04-01T20:01:37.182Z,9.47
2019-04-01T20:04:05.456Z,9.43
2019-04-01T20:06:33.903Z,9.40
2019-04-01T20:09:02.243Z,9.34
2019-04-01T20:11:30.516Z,9.32
2019-04-01T20:13:58.851Z,9.25
2019-04-01T20:16:27.120Z,9.23
2019-04-01T20:18:55.419Z,9.18
2019-04-01T20:21:23.744Z,9.18
2019-04-01T20:23:54.825Z,9.08
2019-04-01T20:26:22.141Z,9.03
2019-04-01T20:28:50.432Z,9.00
2019-04-01T20:31:18.713Z,8.97
2019-04-01T20:33:49.141Z,8.97
2019-04-01T20:36:27.919Z,8.94
2019-04-01T20:38:49.055Z,8.92
2019-04-01T20:41:17.460Z,8.86
2019-04-01T20:43:45.898Z,8.83
2019-04-01T20:46:14.181Z,8.81
2019-04-01T20:48:42.496Z,8.77
2019-04-01T20:51:11.851Z,8.71
2019-04-01T20:53:40.124Z,8.64
2019-04-01T20:56:08.425Z,8.58
2019-04-01T20:58:37.710Z,8.57
2019-04-01T21:01:07.177Z,8.52
2019-04-01T21:03:35.770Z,8.43
2019-04-01T21:06:04.197Z,8.39
2019-04-01T21:08:32.553Z,8.36
2019-04-01T21:11:00.818Z,8.36
2019-04-01T21:13:29.148Z,8.32
2019-04-01T21:15:59.030Z,8.31
2019-04-01T21:18:27.501Z,8.28
2019-04-01T21:20:55.836Z,8.24
2019-04-01T21:23:24.166Z,8.22
2019-04-01T21:25:52.538Z,8.20
2019-04-01T21:28:22.907Z,8.15
2019-04-01T21:30:50.939Z,8.11
2019-04-01T21:33:19.979Z,8.04
2019-04-01T21:35:48.274Z,8.03
2019-04-01T21:38:16.585Z,8.00
2019-04-01T21:40:44.976Z,7.98
2019-04-01T21:43:13.278Z,7.97
2019-04-01T21:45:41.603Z,7.93
2019-04-01T21:48:10.558Z,7.89
2019-04-01T21:50:40.260Z,7.85
2019-04-01T21:53:08.539Z,7.85
2019-04-01T21:55:36.887Z,7.84
2019-04-01T21:58:05.198Z,7.74
2019-04-01T22:00:53.613Z,7.72
2019-04-01T22:03:21.957Z,7.71
2019-04-01T22:05:51.495Z,7.66
2019-04-01T22:08:22.349Z,7.63
2019-04-01T22:10:50.617Z,7.60
2019-04-01T22:13:18.934Z,7.58
2019-04-01T22:15:47.207Z,7.51
2019-04-01T22:18:15.957Z,7.50
2019-04-01T22:20:44.243Z,7.49
2019-04-01T22:23:12.551Z,7.46
2019-04-01T22:25:40.844Z,7.43
2019-04-01T22:28:09.124Z,7.42
2019-04-01T22:30:37.555Z,7.38
2019-04-01T22:33:05.824Z,7.34
2019-04-01T22:35:39.087Z,7.30
2019-04-01T22:38:06.207Z,7.29
2019-04-01T22:40:34.393Z,7.30
2019-04-01T22:43:02.653Z,7.24
2019-04-01T22:45:30.976Z,7.23
2019-04-01T22:47:59.243Z,7.20
2019-04-01T22:50:27.532Z,7.15
2019-04-01T22:52:55.955Z,7.10
2019-04-01T22:55:24.279Z,7.12
2019-04-01T22:57:53.314Z,7.10
2019-04-01T23:00:22.090Z,7.03
2019-04-01T23:02:50.398Z,6.93
2019-04-01T23:05:19.566Z,6.93
2019-04-01T23:07:47.842Z,6.99
2019-04-01T23:10:16.229Z,6.94
2019-04-01T23:12:45.211Z,6.93
2019-04-01T23:15:15.131Z,6.90
2019-04-01T23:17:44.364Z,6.85
2019-04-01T23:20:12.716Z,6.81
2019-04-01T23:22:41.073Z,6.76
2019-04-01T23:25:09.373Z,6.79
2019-04-01T23:27:38.515Z,6.74
2019-04-01T23:30:08.851Z,6.78
2019-04-01T23:32:37.161Z,6.70
2019-04-01T23:35:06.505Z,6.70
2019-04-01T23:37:34.884Z,6.70
2019-04-01T23:40:03.504Z,6.68
2019-04-01T23:42:32.113Z,6.63
2019-04-01T23:45:01.150Z,6.58
2019-04-01T23:47:30.455Z,6.55
2019-04-01T23:49:59.095Z,6.57
2019-04-01T23:52:27.394Z,6.57
2019-04-01T23:54:55.753Z,6.57
2019-04-01T23:57:24.224Z,6.46
2019-04-01T23:59:53.463Z,6.42
